Impacts TAF Board
For situational awareness. Not to be used for flight planning purposes.
IDs:

KMCO - Orlando Intl, FL, US

Issued at 1833 UTC 18 Jun 2019
Updated at 1924 UTC 18 Jun 2019
Potential Impact None Slight Moderate High
Time1853Z 18/20Z 18/21Z 18/22Z 18/23Z 19/00Z 19/01Z 19/02Z 19/03Z 19/04Z 19/05Z 19/06Z 19/07Z 19/08Z>>
Type OBS PRVL PRVL PRVL PRVL PRVL PRVL PRVL PRVL PRVL PRVL PRVL PRVL PRVL
VIS 10 >6 >6 >6 >6 >6 >6 >6 >6 >6 >6 >6 >6 >6
CIG 130 60 60 60 60 200 200 200 200 200 200 200 200 200
Cover OVC BKN BKN BKN BKN BKN BKN BKN BKN BKN BKN BKN BKN BKN
FltCat VFR VFR VFR VFR VFR VFR VFR VFR VFR VFR VFR VFR VFR VFR
WX -RA VCTS VCTS VCTS VCTS -- -- -- -- -- -- -- -- --
WDir 240 250 250 250 250 210 210 210 210 210 210 210 210 210
WSpd 3 9 9 9 9 7 7 7 7 7 7 7 7 7
WGst -- -- -- -- -- -- -- -- -- -- -- -- -- --
Raw TAF
KMCO 181833Z 1819/1924 25009KT P6SM VCTS SCT035CB BKN060
  TEMPO 1819/1820 4SM -TSRA BKN035CB BKN080
  FM190000 21007KT P6SM SCT050 BKN200
  FM191500 24010KT P6SM SCT030 SCT060 BKN200


Raw METAR
KMCO 181853Z 24003KT 10SM -RA FEW044 SCT070 OVC130 24/22 A3002 RMK AO2 LTG DSNT NE-SE TSE35 SLP163 P0044 T02440222
KMCO 181835Z 28005KT 10SM -RA FEW044 BKN070 OVC120 24/22 A3002 RMK AO2 LTG DSNT NE-S TSE35 P0044 T02390222
KMCO 181820Z VRB06KT 3SM R35L/4000VP6000FT -TSRA BR BKN034CB OVC065 23/22 A3004 RMK AO2 LTG DSNT ALQDS FRQ LTGICCG OHD AND ALQDS TS OHD AND ALQDS MOV E P0041 T02330222
KMCO 181816Z 24008KT 1 1/2SM R35L/3500V5500FT -TSRA BR FEW022 BKN037CB OVC060 23/22 A3005 RMK AO2 LTG DSNT N AND S AND W VIS N-NE 3 FRQ LTGICCG OHD AND ALQDS TS OHD AND ALQDS MOV E P0036 T02330222
KMCO 181811Z 23012G16KT 2SM R35L/3000V5000FT -TSRA BR FEW022 BKN037CB OVC060 23/22 A3005 RMK AO2 LTG DSNT N AND S AND W VIS N-NE 3 FRQ LTGICCG OHD AND ALQDS TS OHD AND ALQDS MOV E P0028 T02330217
KMCO 181806Z 23013G16KT 3SM R35L/3000V5000FT -TSRA BR FEW022 BKN037CB OVC060 24/22 A3005 RMK AO2 LTG DSNT N AND S AND W VIS E-S 2 FRQ LTGICCG OHD AND ALQDS TS OHD AND ALQDS MOV E P0025 T02390217
KMCO 181800Z 24010G20KT 1SM R35L/3000VP6000FT -TSRA FEW022 BKN037CB OVC060 24/21 A3006 RMK AO2 LTG DSNT ALQDS FRQ LTGICCG OHD AND ALQDS TS OHD AND ALQDS MOV E P0012 T02440211
KMCO 181757Z 25014G31KT 1 1/2SM R35L/3500VP6000FT -TSRA FEW022 BKN037CB OVC060 25/22 A3007 RMK AO2 LTG DSNT ALQDS FRQ LTGICCG OHD AND ALQDS TS OHD AND ALQDS MOV E P0001 T02500217
KMCO 181753Z 26017G31KT 10SM -TSRA FEW007 BKN035CB BKN250 26/21 A3006 RMK AO2 PK WND 27033/1741 LTG DSNT ALQDS RAB50 TSE31B32 PRESRR SLP178 FRQ LTGICCG SW-N TS SW-N MOV E CB ALQDS MOV E P0000 60000 T02610206 10328 20250
KMCO 181732Z COR 24012KT 10SM TS SCT035CB SCT250 33/23 A3001 RMK AO2 LTG DSNT SW-N TSE31B32 OCNL LTGCG W TS W MOV E CB DSNT SW-N MOV E VCSH W-NW T03280228
KMCO 181653Z 23008KT 190V250 10SM SCT034CB SCT250 32/23 A3003 RMK AO2 LTG DSNT W SLP166 CB N-E DSNT SW-NW MOV E VCSH NE T03170228

METAR Board
Radar Display
Forecast Discussion
For situational awareness. Not to be used for flight planning purposes.